createdAt,value
2022-10-28T00:01:24.923Z,97.80
2022-10-28T00:03:57.932Z,109.93
2022-10-28T00:06:29.123Z,59.95
2022-10-28T00:08:57.437Z,70.20
2022-10-28T00:11:28.079Z,72.15
2022-10-28T00:13:57.821Z,74.50
2022-10-28T00:16:29.442Z,81.00
2022-10-28T00:18:59.651Z,76.93
2022-10-28T00:21:30.840Z,68.03
2022-10-28T00:23:59.600Z,69.63
2022-10-28T00:26:30.760Z,74.93
2022-10-28T00:29:01.633Z,78.68
2022-10-28T00:31:31.299Z,66.35
2022-10-28T00:34:00.318Z,66.10
2022-10-28T00:36:34.579Z,75.05
2022-10-28T00:39:05.158Z,94.47
2022-10-28T00:41:38.169Z,90.05
2022-10-28T00:44:46.762Z,83.10
2022-10-28T00:47:28.430Z,84.82
2022-10-28T00:50:00.420Z,91.93
2022-10-28T00:52:30.068Z,117.28
2022-10-28T00:55:00.348Z,116.88
2022-10-28T00:57:32.612Z,103.05
2022-10-28T01:00:01.870Z,90.70
2022-10-28T01:02:30.500Z,96.63
2022-10-28T01:04:58.770Z,84.70
2022-10-28T01:07:27.161Z,80.65
2022-10-28T01:09:55.012Z,79.88
2022-10-28T01:12:54.066Z,75.72
2022-10-28T01:15:27.608Z,77.47
2022-10-28T01:18:01.321Z,77.88
2022-10-28T01:20:45.326Z,73.47
2022-10-28T01:23:47.714Z,69.35
2022-10-28T01:26:34.235Z,68.35
2022-10-28T01:29:20.823Z,68.03
2022-10-28T01:31:55.326Z,72.13
2022-10-28T01:34:31.900Z,76.25
2022-10-28T01:37:38.741Z,69.38
2022-10-28T01:40:24.211Z,86.22
2022-10-28T01:42:59.784Z,76.57
2022-10-28T01:45:34.518Z,80.43
2022-10-28T01:48:09.133Z,78.00
2022-10-28T01:50:58.646Z,80.03
2022-10-28T01:53:32.136Z,67.65
2022-10-28T01:56:04.371Z,74.57
2022-10-28T01:58:33.446Z,83.75
2022-10-28T02:01:05.548Z,89.97
2022-10-28T02:03:34.149Z,84.97
2022-10-28T02:06:07.891Z,87.40
2022-10-28T02:08:45.220Z,84.00
2022-10-28T02:11:22.063Z,65.82
2022-10-28T02:14:21.279Z,69.45
2022-10-28T02:17:13.539Z,83.38
2022-10-28T02:19:48.170Z,85.13
2022-10-28T02:22:23.754Z,86.40
2022-10-28T02:25:08.278Z,87.13
2022-10-28T02:27:55.443Z,94.25
2022-10-28T02:30:30.342Z,79.22
2022-10-28T02:33:01.803Z,80.93
2022-10-28T02:36:18.915Z,73.13
2022-10-28T02:38:52.481Z,66.72
2022-10-28T02:41:24.374Z,75.35
2022-10-28T02:43:56.054Z,69.38
2022-10-28T02:46:25.823Z,71.90
2022-10-28T02:48:55.460Z,84.32
2022-10-28T02:51:30.724Z,73.57
2022-10-28T02:54:18.389Z,74.90
2022-10-28T02:56:52.802Z,73.65
2022-10-28T02:59:20.769Z,68.60
2022-10-28T03:01:48.582Z,69.00
2022-10-28T03:04:16.958Z,68.68
2022-10-28T03:06:44.711Z,84.28
2022-10-28T03:09:12.610Z,91.22
2022-10-28T03:11:40.327Z,103.20
2022-10-28T03:14:10.722Z,98.57
2022-10-28T03:16:41.014Z,99.50
2022-10-28T03:21:42.792Z,95.40
2022-10-28T03:24:10.972Z,83.40
2022-10-28T03:26:38.731Z,88.05
2022-10-28T03:29:07.083Z,86.95
2022-10-28T03:31:34.799Z,86.25
2022-10-28T03:34:02.941Z,80.25
2022-10-28T03:36:30.689Z,85.72
2022-10-28T03:38:58.980Z,84.43
2022-10-28T03:41:26.672Z,84.28
2022-10-28T03:43:54.951Z,90.38
2022-10-28T03:46:22.518Z,87.25
2022-10-28T03:48:50.806Z,78.00
2022-10-28T03:51:18.666Z,83.38
2022-10-28T03:53:48.312Z,77.03
2022-10-28T03:56:16.199Z,75.10
2022-10-28T03:58:44.712Z,76.28
2022-10-28T04:01:12.606Z,73.07
2022-10-28T04:03:41.202Z,65.68
2022-10-28T04:06:10.189Z,72.32
2022-10-28T04:08:38.848Z,63.03
2022-10-28T04:11:07.303Z,71.55
2022-10-28T04:13:36.054Z,70.25
2022-10-28T04:16:04.639Z,72.80
2022-10-28T04:18:32.850Z,74.28
2022-10-28T04:21:00.915Z,73.00
2022-10-28T04:23:29.738Z,73.63
2022-10-28T04:25:57.690Z,62.03
2022-10-28T04:28:26.142Z,67.45
2022-10-28T04:30:54.205Z,67.30
2022-10-28T04:33:22.664Z,88.60
2022-10-28T04:35:50.591Z,83.20
2022-10-28T04:38:18.633Z,66.88
2022-10-28T04:40:49.915Z,67.03
2022-10-28T04:43:17.944Z,61.20
2022-10-28T04:45:47.330Z,88.78
2022-10-28T04:48:15.879Z,67.47
2022-10-28T04:50:44.264Z,62.67
2022-10-28T04:53:12.714Z,57.47
2022-10-28T04:55:40.694Z,53.25
2022-10-28T04:58:10.678Z,54.95
2022-10-28T05:00:38.457Z,57.28
2022-10-28T05:03:06.644Z,59.97
2022-10-28T05:05:35.013Z,59.72
2022-10-28T05:08:03.383Z,60.80
2022-10-28T05:10:32.034Z,60.65
2022-10-28T05:13:00.611Z,57.58
2022-10-28T05:15:28.491Z,57.20
2022-10-28T05:17:56.658Z,58.00
2022-10-28T05:20:24.911Z,57.13
2022-10-28T05:22:55.380Z,58.22
2022-10-28T05:25:24.408Z,56.13
2022-10-28T05:27:52.922Z,56.13
2022-10-28T05:30:20.842Z,56.03
2022-10-28T05:32:51.560Z,54.53
2022-10-28T05:35:22.363Z,53.85
2022-10-28T05:37:50.808Z,53.50
2022-10-28T05:40:19.030Z,55.13
2022-10-28T05:42:47.373Z,54.95
2022-10-28T05:45:15.364Z,54.70
2022-10-28T05:47:47.908Z,53.95
2022-10-28T05:50:18.291Z,57.40
2022-10-28T05:52:50.986Z,58.17
2022-10-28T05:55:20.681Z,57.38
2022-10-28T05:57:50.478Z,61.08
2022-10-28T06:00:20.968Z,59.92
2022-10-28T06:02:49.014Z,61.53
2022-10-28T06:05:17.424Z,60.38
2022-10-28T06:07:45.640Z,60.95
2022-10-28T06:10:13.773Z,62.30
2022-10-28T06:12:42.521Z,64.47
2022-10-28T06:15:10.491Z,61.42
2022-10-28T06:17:39.005Z,61.35
2022-10-28T06:20:07.250Z,59.28
2022-10-28T06:22:35.819Z,59.38
2022-10-28T06:25:04.410Z,67.47
2022-10-28T06:27:34.615Z,62.15
2022-10-28T06:30:03.104Z,67.95
2022-10-28T06:32:31.817Z,59.85
2022-10-28T06:34:59.648Z,67.80
2022-10-28T06:37:28.223Z,65.97
2022-10-28T06:39:57.919Z,68.55
2022-10-28T06:42:26.651Z,66.07
2022-10-28T06:44:54.492Z,70.43
2022-10-28T06:47:24.617Z,72.00
2022-10-28T06:49:52.501Z,68.28
2022-10-28T06:52:20.763Z,68.45
2022-10-28T06:54:48.583Z,64.60
2022-10-28T06:57:16.591Z,64.50
2022-10-28T06:59:45.106Z,64.22
2022-10-28T07:02:21.946Z,60.33
2022-10-28T07:04:50.081Z,61.17
2022-10-28T07:07:18.515Z,62.47
2022-10-28T07:09:47.218Z,60.50
2022-10-28T07:12:15.290Z,58.22
2022-10-28T07:14:43.179Z,55.83
2022-10-28T07:17:11.012Z,53.78
2022-10-28T07:19:39.166Z,51.63
2022-10-28T07:22:07.036Z,50.72
2022-10-28T07:24:35.724Z,49.45
2022-10-28T07:27:03.730Z,48.25
2022-10-28T07:29:32.238Z,45.90
2022-10-28T07:32:00.301Z,47.10
2022-10-28T07:34:28.704Z,50.17
2022-10-28T07:36:57.418Z,54.88
2022-10-28T07:39:25.555Z,40.88
2022-10-28T07:41:53.430Z,72.47
2022-10-28T07:44:21.576Z,57.15
2022-10-28T07:46:51.914Z,41.05
2022-10-28T07:49:21.234Z,38.13
2022-10-28T07:51:51.221Z,38.13
2022-10-28T07:54:19.411Z,37.83
2022-10-28T07:56:47.270Z,35.97
2022-10-28T07:59:16.241Z,42.90
2022-10-28T08:01:44.044Z,35.70
2022-10-28T08:04:12.500Z,36.60
2022-10-28T08:06:40.595Z,36.40
2022-10-28T08:09:08.754Z,37.13
2022-10-28T08:11:36.818Z,34.20
2022-10-28T08:14:05.736Z,32.45
2022-10-28T08:16:33.587Z,33.10
2022-10-28T08:19:07.474Z,33.05
2022-10-28T08:21:35.752Z,34.75
2022-10-28T08:24:04.549Z,33.83
2022-10-28T08:26:32.383Z,34.22
2022-10-28T08:29:01.731Z,34.83
2022-10-28T08:31:32.735Z,35.83
2022-10-28T08:34:00.931Z,34.55
2022-10-28T08:36:28.861Z,34.97
2022-10-28T08:38:59.485Z,33.20
2022-10-28T08:41:45.989Z,31.48
2022-10-28T08:44:14.331Z,32.45
2022-10-28T08:46:57.978Z,31.90
2022-10-28T08:49:26.730Z,31.23
2022-10-28T08:52:05.315Z,31.65
2022-10-28T08:54:42.514Z,32.08
2022-10-28T08:57:18.119Z,28.63
2022-10-28T08:59:47.614Z,27.52
2022-10-28T09:02:24.220Z,27.35
2022-10-28T09:05:15.894Z,27.67
2022-10-28T09:07:43.770Z,27.05
2022-10-28T09:10:39.385Z,26.40
2022-10-28T09:13:31.715Z,24.38
2022-10-28T09:16:17.830Z,26.02
2022-10-28T09:18:52.531Z,26.98
2022-10-28T09:21:34.078Z,26.08
2022-10-28T09:24:14.635Z,25.50
2022-10-28T09:27:17.780Z,26.45
2022-10-28T09:30:41.584Z,26.25
2022-10-28T09:33:22.416Z,26.65
2022-10-28T09:35:51.746Z,26.65
2022-10-28T09:38:35.280Z,27.15
2022-10-28T09:41:26.168Z,27.20
2022-10-28T09:44:31.293Z,29.42
2022-10-28T09:47:01.423Z,27.42
2022-10-28T09:49:32.049Z,28.08
2022-10-28T09:52:08.550Z,27.42
2022-10-28T09:54:42.796Z,28.20
2022-10-28T09:57:13.721Z,26.45
2022-10-28T09:59:44.540Z,26.50
2022-10-28T10:02:39.006Z,27.33
2022-10-28T10:05:16.822Z,27.65
2022-10-28T10:08:05.763Z,26.42
2022-10-28T10:10:48.659Z,26.80
2022-10-28T10:13:23.056Z,25.58
2022-10-28T10:18:31.270Z,25.38
2022-10-28T10:21:00.185Z,26.17
2022-10-28T10:23:36.337Z,25.75
2022-10-28T10:26:22.064Z,25.20
2022-10-28T10:28:51.531Z,25.27
2022-10-28T10:31:39.497Z,25.40
2022-10-28T10:34:27.868Z,25.42
2022-10-28T10:36:56.647Z,26.05
2022-10-28T10:39:42.932Z,25.38
2022-10-28T10:42:29.450Z,26.88
2022-10-28T10:45:27.842Z,24.50
2022-10-28T10:48:16.253Z,23.58
2022-10-28T10:50:46.105Z,25.30
2022-10-28T10:53:26.549Z,22.77
2022-10-28T10:55:59.536Z,23.83
2022-10-28T10:58:52.168Z,23.65
2022-10-28T11:01:23.902Z,22.42
2022-10-28T11:04:17.816Z,21.35
2022-10-28T11:06:50.481Z,21.88
2022-10-28T11:09:37.477Z,21.27
2022-10-28T11:12:26.578Z,21.20
2022-10-28T11:15:20.114Z,21.48
2022-10-28T11:18:17.495Z,20.25
2022-10-28T11:20:54.256Z,19.35
2022-10-28T11:23:51.176Z,18.75
2022-10-28T11:26:43.687Z,18.73
2022-10-28T11:29:16.315Z,17.02
2022-10-28T11:31:55.932Z,18.40
2022-10-28T11:34:40.484Z,17.67
2022-10-28T11:37:29.782Z,16.63
2022-10-28T11:40:22.853Z,16.92
2022-10-28T11:43:22.509Z,16.92
2022-10-28T11:46:03.842Z,16.02
2022-10-28T11:49:02.231Z,15.27
2022-10-28T11:52:18.010Z,14.73
2022-10-28T11:54:59.609Z,15.00
2022-10-28T11:58:07.002Z,15.52
2022-10-28T12:00:41.565Z,15.40
2022-10-28T12:03:47.422Z,15.18
2022-10-28T12:06:23.594Z,14.45
2022-10-28T12:09:10.446Z,14.80
2022-10-28T12:12:25.771Z,14.85
2022-10-28T12:15:15.254Z,14.00
2022-10-28T12:18:06.561Z,14.63
2022-10-28T12:21:17.852Z,14.57
2022-10-28T12:26:16.213Z,13.80
2022-10-28T12:29:04.408Z,12.25
2022-10-28T12:31:44.598Z,12.30
2022-10-28T12:34:16.599Z,12.63
2022-10-28T12:36:45.118Z,12.60
2022-10-28T12:39:57.096Z,12.05
2022-10-28T12:42:46.678Z,12.23
2022-10-28T12:45:18.436Z,11.77
2022-10-28T12:47:50.767Z,11.93
2022-10-28T12:50:40.477Z,12.30
2022-10-28T12:54:04.229Z,11.75
2022-10-28T12:56:37.415Z,11.02
2022-10-28T12:59:28.230Z,10.85
2022-10-28T13:04:24.788Z,9.95
2022-10-28T13:07:22.785Z,9.85
2022-10-28T13:09:57.519Z,8.73
2022-10-28T13:12:48.747Z,9.48
2022-10-28T13:15:46.164Z,8.95
2022-10-28T13:18:29.376Z,9.10
2022-10-28T13:21:18.467Z,8.27
2022-10-28T13:24:25.345Z,9.50
2022-10-28T13:26:54.799Z,9.77
2022-10-28T13:29:43.549Z,9.50
2022-10-28T13:32:38.358Z,9.05
2022-10-28T13:35:12.962Z,9.30
2022-10-28T13:37:41.697Z,9.52
2022-10-28T13:40:30.815Z,10.52
2022-10-28T13:43:22.043Z,10.45
2022-10-28T13:45:56.064Z,10.48
2022-10-28T13:48:29.857Z,10.65
2022-10-28T13:51:10.347Z,9.52
2022-10-28T13:53:54.699Z,9.95
2022-10-28T13:56:41.558Z,10.15
2022-10-28T13:59:14.986Z,9.98
2022-10-28T14:02:02.008Z,11.15
2022-10-28T14:05:00.562Z,11.57
2022-10-28T14:07:32.032Z,12.00
2022-10-28T14:10:24.334Z,12.25
2022-10-28T14:12:59.624Z,10.95
2022-10-28T14:15:48.519Z,11.93
2022-10-28T14:18:42.318Z,11.75
2022-10-28T14:21:08.465Z,11.85
2022-10-28T14:23:50.149Z,12.77
2022-10-28T14:27:15.936Z,12.68
2022-10-28T14:30:09.110Z,13.25
2022-10-28T14:33:01.910Z,12.30
2022-10-28T14:35:49.970Z,12.48
2022-10-28T14:38:36.756Z,13.52
2022-10-28T14:41:35.867Z,12.77
2022-10-28T14:44:06.329Z,12.23
2022-10-28T14:47:03.313Z,13.90
2022-10-28T14:49:32.290Z,13.13
2022-10-28T14:52:18.947Z,13.32
2022-10-28T14:54:51.152Z,12.07
2022-10-28T14:57:37.499Z,13.90
2022-10-28T15:00:07.476Z,14.88
2022-10-28T15:02:39.127Z,14.95
2022-10-28T15:05:18.509Z,12.77
2022-10-28T15:07:47.363Z,13.18
2022-10-28T15:10:39.313Z,13.27
2022-10-28T15:13:17.056Z,13.98
2022-10-28T15:15:59.485Z,13.70
2022-10-28T15:18:50.996Z,12.98
2022-10-28T15:21:21.712Z,13.63
2022-10-28T15:24:03.213Z,13.50
2022-10-28T15:26:31.203Z,13.60
2022-10-28T15:28:59.611Z,13.20
2022-10-28T15:31:28.136Z,13.27
2022-10-28T15:34:21.706Z,13.63
2022-10-28T15:36:50.452Z,12.93
2022-10-28T15:39:19.103Z,13.68
2022-10-28T15:42:27.258Z,13.60
2022-10-28T15:44:57.055Z,13.20
2022-10-28T15:47:45.482Z,13.82
2022-10-28T15:50:32.806Z,13.90
2022-10-28T15:53:10.242Z,12.93
2022-10-28T15:56:06.984Z,13.60
2022-10-28T15:58:36.121Z,13.45
2022-10-28T16:01:05.280Z,14.27
2022-10-28T16:03:47.563Z,14.40
2022-10-28T16:06:24.293Z,15.93
2022-10-28T16:09:19.429Z,14.20
2022-10-28T16:11:58.009Z,15.10
2022-10-28T16:15:03.187Z,14.65
2022-10-28T16:17:34.069Z,14.60
2022-10-28T16:20:18.324Z,14.40
2022-10-28T16:22:48.841Z,14.35
2022-10-28T16:25:20.814Z,14.07
2022-10-28T16:27:50.554Z,15.30
2022-10-28T16:30:19.179Z,14.45
2022-10-28T16:32:49.162Z,13.90
2022-10-28T16:35:22.006Z,14.52
2022-10-28T16:37:55.051Z,14.25
2022-10-28T16:43:31.121Z,14.45
2022-10-28T16:46:00.791Z,14.93
2022-10-28T16:48:30.698Z,15.30
2022-10-28T16:51:10.826Z,14.05
2022-10-28T16:53:39.239Z,13.85
2022-10-28T16:56:13.618Z,15.93
2022-10-28T16:58:43.052Z,15.52
2022-10-28T17:01:12.760Z,19.77
2022-10-28T17:03:40.645Z,16.25
2022-10-28T17:06:10.602Z,16.17
2022-10-28T17:11:26.883Z,14.70
2022-10-28T17:13:54.735Z,14.82
2022-10-28T17:16:22.958Z,15.93
2022-10-28T17:18:50.679Z,15.73
2022-10-28T17:21:18.961Z,16.23
2022-10-28T17:23:47.137Z,16.60
2022-10-28T17:26:33.234Z,16.98
2022-10-28T17:29:01.585Z,17.13
2022-10-28T17:31:30.058Z,16.58
2022-10-28T17:34:16.168Z,17.08
2022-10-28T17:36:44.694Z,15.98
2022-10-28T17:39:17.775Z,17.48
2022-10-28T17:41:48.429Z,17.20
2022-10-28T17:44:34.854Z,18.02
2022-10-28T17:47:03.175Z,18.92
2022-10-28T17:49:49.305Z,18.10
2022-10-28T17:52:17.468Z,18.42
2022-10-28T17:55:03.385Z,17.60
2022-10-28T17:57:31.686Z,17.83
2022-10-28T17:59:59.879Z,17.40
2022-10-28T18:02:28.114Z,18.30
2022-10-28T18:04:55.937Z,18.90
2022-10-28T18:07:24.157Z,19.00
2022-10-28T18:09:52.116Z,18.75
2022-10-28T18:12:20.629Z,19.63
2022-10-28T18:14:48.434Z,17.73
2022-10-28T18:17:18.133Z,19.60
2022-10-28T18:19:45.876Z,19.52
2022-10-28T18:22:14.660Z,19.10
2022-10-28T18:24:42.532Z,18.88
2022-10-28T18:27:11.155Z,20.55
2022-10-28T18:29:39.416Z,20.17
2022-10-28T18:32:07.312Z,19.58
2022-10-28T18:34:35.943Z,19.15
2022-10-28T18:37:07.910Z,19.55
2022-10-28T18:39:36.227Z,18.88
2022-10-28T18:42:04.633Z,18.67
2022-10-28T18:44:32.425Z,17.38
2022-10-28T18:47:00.975Z,17.77
2022-10-28T18:49:28.601Z,18.13
2022-10-28T18:51:56.932Z,17.85
2022-10-28T18:54:43.042Z,17.70
2022-10-28T18:57:11.174Z,16.70
2022-10-28T18:59:52.420Z,16.33
2022-10-28T19:02:29.067Z,16.48
2022-10-28T19:04:58.613Z,16.52
2022-10-28T19:07:26.661Z,15.88
2022-10-28T19:09:55.183Z,16.48
2022-10-28T19:12:23.051Z,15.48
2022-10-28T19:14:51.594Z,14.73
2022-10-28T19:17:20.487Z,19.20
2022-10-28T19:19:49.473Z,15.35
2022-10-28T19:22:18.929Z,15.32
2022-10-28T19:24:47.528Z,14.90
2022-10-28T19:27:16.101Z,15.50
2022-10-28T19:30:06.576Z,15.13
2022-10-28T19:32:39.232Z,15.43
2022-10-28T19:35:07.880Z,14.68
2022-10-28T19:37:36.588Z,14.85
2022-10-28T19:40:05.287Z,14.60
2022-10-28T19:42:33.598Z,15.40
2022-10-28T19:45:04.012Z,16.58
2022-10-28T19:47:32.567Z,16.48
2022-10-28T19:50:00.476Z,16.52
2022-10-28T19:52:28.964Z,16.35
2022-10-28T19:54:57.625Z,15.68
2022-10-28T19:57:45.682Z,16.25
2022-10-28T20:00:16.051Z,17.05
2022-10-28T20:02:43.985Z,16.25
2022-10-28T20:05:12.665Z,16.67
2022-10-28T20:07:41.235Z,16.25
2022-10-28T20:10:10.258Z,16.73
2022-10-28T20:12:38.454Z,15.10
2022-10-28T20:15:08.138Z,16.55
2022-10-28T20:17:36.835Z,16.48
2022-10-28T20:20:05.554Z,17.08
2022-10-28T20:22:51.964Z,17.08
2022-10-28T20:25:20.037Z,14.80
2022-10-28T20:27:49.833Z,15.48
2022-10-28T20:30:18.216Z,14.73
2022-10-28T20:32:49.720Z,16.33
2022-10-28T20:35:21.100Z,17.45
2022-10-28T20:37:54.194Z,16.90
2022-10-28T20:40:22.675Z,16.35
2022-10-28T20:42:50.846Z,16.30
2022-10-28T20:45:18.770Z,17.48
2022-10-28T20:47:47.422Z,17.40
2022-10-28T20:50:15.231Z,17.33
2022-10-28T20:52:43.378Z,16.75
2022-10-28T20:55:29.320Z,17.10
2022-10-28T20:57:57.429Z,16.77
2022-10-28T21:00:25.649Z,16.75
2022-10-28T21:02:55.041Z,17.05
2022-10-28T21:05:23.375Z,17.80
2022-10-28T21:08:10.633Z,17.48
2022-10-28T21:10:40.253Z,17.40
2022-10-28T21:13:09.146Z,17.33
2022-10-28T21:15:39.053Z,18.83
2022-10-28T21:18:08.419Z,21.77
2022-10-28T21:20:37.715Z,18.67
2022-10-28T21:23:06.676Z,17.10
2022-10-28T21:25:34.680Z,16.77
2022-10-28T21:28:02.542Z,15.88
2022-10-28T21:30:30.941Z,16.25
2022-10-28T21:32:58.841Z,15.18
2022-10-28T21:35:27.569Z,14.50
2022-10-28T21:37:56.719Z,14.68
2022-10-28T21:40:25.200Z,14.48
2022-10-28T21:42:53.673Z,14.57
2022-10-28T21:45:39.587Z,14.55
2022-10-28T21:48:26.599Z,13.45
2022-10-28T21:51:15.172Z,14.25
2022-10-28T21:53:45.010Z,14.05
2022-10-28T21:56:18.107Z,14.63
2022-10-28T21:58:49.095Z,13.20
2022-10-28T22:01:25.689Z,13.45
2022-10-28T22:04:12.397Z,12.93
2022-10-28T22:06:40.875Z,13.20
2022-10-28T22:09:08.877Z,12.75
2022-10-28T22:11:37.455Z,12.98
2022-10-28T22:14:23.247Z,12.07
2022-10-28T22:16:51.615Z,12.88
2022-10-28T22:19:19.750Z,13.02
2022-10-28T22:22:05.864Z,13.10
2022-10-28T22:24:34.355Z,12.40
2022-10-28T22:27:02.335Z,13.10
2022-10-28T22:29:48.124Z,12.82
2022-10-28T22:32:35.201Z,12.52
2022-10-28T22:35:03.824Z,12.05
2022-10-28T22:37:31.646Z,12.75
2022-10-28T22:39:59.674Z,12.18
2022-10-28T22:42:27.997Z,12.80
2022-10-28T22:44:55.872Z,11.98
2022-10-28T22:47:24.502Z,12.38
2022-10-28T22:49:52.294Z,13.05
2022-10-28T22:52:20.533Z,11.35
2022-10-28T22:55:07.464Z,12.30
2022-10-28T22:57:36.133Z,12.05
2022-10-28T23:00:04.950Z,12.55
2022-10-28T23:02:51.401Z,12.45
2022-10-28T23:05:19.978Z,11.60
2022-10-28T23:07:47.835Z,12.60
2022-10-28T23:10:34.298Z,11.88
2022-10-28T23:13:03.114Z,12.38
2022-10-28T23:15:30.874Z,12.07
2022-10-28T23:17:58.934Z,12.07
2022-10-28T23:20:45.157Z,11.98
2022-10-28T23:23:13.874Z,12.50
2022-10-28T23:25:41.717Z,12.40
2022-10-28T23:28:27.441Z,12.75
2022-10-28T23:31:17.641Z,12.73
2022-10-28T23:33:45.720Z,12.02
2022-10-28T23:36:35.034Z,12.30
2022-10-28T23:39:03.561Z,12.30
2022-10-28T23:41:31.586Z,12.82
2022-10-28T23:44:01.022Z,11.95
2022-10-28T23:46:32.310Z,12.23
2022-10-28T23:49:02.725Z,12.95
2022-10-28T23:51:31.231Z,11.73
2022-10-28T23:53:59.180Z,11.75
2022-10-28T23:56:26.976Z,12.43
2022-10-28T23:58:55.203Z,12.00
